Time;durP1;ratioP1;P1;durP2;ratioP2;P2;SDS_P1;SDS_P2;PMS_P1;PMS_P2;Temp;Humidity;BMP_temperature;BMP_pressure;BME280_temperature;BME280_humidity;BME280_pressure;Samples;Min_cycle;Max_cycle;Signal;HPM_P1;HPM_P2
2023/09/16 00:00:08;;;;;;;4.88;3.42;;;;;;;19.13;40.02;101019.69;4925915;29;20050;-70
2023/09/16 00:02:36;;;;;;;6.10;3.70;;;;;;;19.10;39.62;101020.09;4920635;29;20056;-69
2023/09/16 00:05:05;;;;;;;4.88;3.35;;;;;;;19.09;39.98;101023.91;4905408;29;20057;-70
2023/09/16 00:07:33;;;;;;;5.13;3.42;;;;;;;19.06;40.13;101020.63;4922084;29;20418;-70
2023/09/16 00:10:01;;;;;;;5.40;3.55;;;;;;;19.03;40.09;101015.47;4921906;29;20058;-70
2023/09/16 00:12:29;;;;;;;5.20;3.78;;;;;;;18.99;39.85;101023.28;4925157;29;20087;-70
2023/09/16 00:14:57;;;;;;;5.13;3.35;;;;;;;18.96;40.35;101015.38;4922307;29;20042;-70
2023/09/16 00:17:27;;;;;;;4.32;3.22;;;;;;;18.97;40.17;101017.06;4922987;29;20039;-70
2023/09/16 00:19:54;;;;;;;4.45;3.17;;;;;;;18.93;40.37;101012.09;4921721;29;20053;-70
2023/09/16 00:22:24;;;;;;;4.15;3.20;;;;;;;18.92;40.26;101015.91;4920491;29;20107;-70
2023/09/16 00:24:52;;;;;;;5.80;3.58;;;;;;;18.89;40.21;101012.44;4926356;29;20523;-70
2023/09/16 00:27:20;;;;;;;5.65;3.38;;;;;;;18.87;40.56;101010.94;4925265;29;20480;-70
2023/09/16 00:29:48;;;;;;;10.43;3.38;;;;;;;18.86;40.66;101010.06;4924492;29;20101;-70
2023/09/16 00:32:15;;;;;;;5.82;3.05;;;;;;;18.85;40.30;101013.00;4918092;29;20098;-70
2023/09/16 00:34:45;;;;;;;4.68;3.28;;;;;;;18.86;40.51;101011.97;4923588;29;20044;-70
2023/09/16 00:37:13;;;;;;;5.60;3.20;;;;;;;18.81;40.66;101001.41;4913161;29;20051;-70
2023/09/16 00:39:41;;;;;;;5.63;3.40;;;;;;;18.79;40.25;101000.75;4923692;29;20040;-70
2023/09/16 00:42:09;;;;;;;5.10;3.20;;;;;;;18.77;40.51;101001.97;4924584;29;20048;-70
2023/09/16 00:44:38;;;;;;;5.80;3.33;;;;;;;18.75;40.95;101004.06;4923731;29;20047;-70
2023/09/16 00:47:06;;;;;;;5.00;3.13;;;;;;;18.74;40.38;101005.13;4932469;29;20052;-70
2023/09/16 00:49:34;;;;;;;4.43;2.83;;;;;;;18.72;40.65;100996.13;4908550;29;20043;-70
2023/09/16 00:52:04;;;;;;;4.50;3.10;;;;;;;18.73;40.83;100998.69;4906256;29;20407;-70
2023/09/16 00:54:32;;;;;;;5.22;3.40;;;;;;;18.70;40.54;101001.88;4923308;29;20071;-70
2023/09/16 00:57:02;;;;;;;5.38;3.28;;;;;;;18.67;40.92;100999.44;4923150;29;20416;-70
2023/09/16 00:59:32;;;;;;;6.63;3.80;;;;;;;18.65;40.66;100990.44;4922918;29;20495;-70
2023/09/16 01:02:00;;;;;;;4.57;3.40;;;;;;;18.63;41.07;101000.00;4908085;29;20514;-70
2023/09/16 01:04:31;;;;;;;6.13;4.10;;;;;;;18.61;40.79;101000.19;4926393;29;20579;-70
2023/09/16 01:07:01;;;;;;;5.30;4.30;;;;;;;18.57;40.86;100996.03;4905402;29;20048;-70
2023/09/16 01:09:30;;;;;;;4.95;3.97;;;;;;;18.57;41.40;100992.41;4923154;29;20047;-70
2023/09/16 01:11:58;;;;;;;4.95;3.75;;;;;;;18.55;40.92;100997.28;4930282;29;20063;-70
2023/09/16 01:14:27;;;;;;;5.20;3.70;;;;;;;18.54;41.06;100990.88;4927357;29;20043;-70
2023/09/16 01:16:59;;;;;;;4.85;3.55;;;;;;;18.56;41.46;101002.63;4925837;29;20050;-70
2023/09/16 01:19:37;;;;;;;5.68;3.38;;;;;;;18.57;42.09;100993.28;4927301;29;20048;-71
2023/09/16 01:22:07;;;;;;;5.00;3.50;;;;;;;18.54;41.40;100993.66;4924483;29;20059;-70
2023/09/16 01:24:36;;;;;;;4.75;3.33;;;;;;;18.57;41.68;100996.03;4923540;29;20138;-70
2023/09/16 01:27:05;;;;;;;4.35;3.05;;;;;;;18.57;41.89;100987.72;4920389;29;20048;-70
2023/09/16 01:29:35;;;;;;;4.53;3.40;;;;;;;18.58;41.76;100994.13;4921635;29;20231;-70
2023/09/16 01:32:07;;;;;;;5.75;3.50;;;;;;;18.60;41.95;100992.06;4926002;29;20496;-70
2023/09/16 01:34:41;;;;;;;5.13;3.30;;;;;;;18.61;42.40;100989.09;4906890;29;20685;-70
2023/09/16 01:37:14;;;;;;;4.78;3.33;;;;;;;18.61;42.42;100989.09;4903887;29;20488;-69
2023/09/16 01:39:46;;;;;;;4.35;3.22;;;;;;;18.62;41.87;100992.75;4920128;29;20048;-70
2023/09/16 01:42:17;;;;;;;4.82;3.08;;;;;;;18.60;42.27;100987.38;4908273;29;20054;-70
2023/09/16 01:44:48;;;;;;;4.78;3.33;;;;;;;18.60;41.61;100987.38;4926261;29;20079;-70
2023/09/16 01:47:16;;;;;;;4.50;3.35;;;;;;;18.60;41.93;100980.97;4921261;29;20241;-70
2023/09/16 01:49:44;;;;;;;4.30;3.15;;;;;;;18.61;42.12;100978.00;4921984;29;20117;-70
2023/09/16 01:52:12;;;;;;;5.28;2.95;;;;;;;18.61;42.16;100985.47;4904883;29;20078;-70
2023/09/16 01:54:40;;;;;;;4.90;3.38;;;;;;;18.60;41.66;100975.41;4920492;29;20075;-70
2023/09/16 01:57:08;;;;;;;5.53;3.47;;;;;;;18.60;42.03;100978.19;4921495;29;20048;-71
2023/09/16 01:59:37;;;;;;;4.85;3.10;;;;;;;18.61;41.64;100978.00;4907843;29;20414;-70
2023/09/16 02:02:05;;;;;;;5.97;2.88;;;;;;;18.59;41.95;100976.47;4914350;29;20102;-70
2023/09/16 02:04:33;;;;;;;4.75;2.88;;;;;;;18.58;42.19;100969.19;4911108;29;20071;-70
2023/09/16 02:07:02;;;;;;;4.53;2.78;;;;;;;18.58;42.25;100966.41;4904405;29;20036;-70
2023/09/16 02:09:30;;;;;;;5.15;3.20;;;;;;;18.57;42.11;100962.78;4918016;29;20454;-70
2023/09/16 02:11:58;;;;;;;4.78;3.13;;;;;;;18.56;41.88;100961.06;4921417;29;20425;-70
2023/09/16 02:14:26;;;;;;;5.05;2.80;;;;;;;18.56;42.06;100957.41;4919954;29;20425;-70
2023/09/16 02:16:55;;;;;;;5.13;3.03;;;;;;;18.57;42.39;100961.91;4924335;29;20039;-70
2023/09/16 02:19:25;;;;;;;4.40;2.78;;;;;;;18.56;42.32;100965.72;4908428;29;20453;-70
2023/09/16 02:21:53;;;;;;;3.88;2.80;;;;;;;18.55;42.42;100964.03;4904412;29;20051;-70
2023/09/16 02:24:22;;;;;;;3.97;2.70;;;;;;;18.56;42.29;100968.50;4925223;29;20043;-70
2023/09/16 02:26:51;;;;;;;4.78;3.17;;;;;;;18.55;42.37;100962.13;4903977;29;20048;-70
2023/09/16 02:29:19;;;;;;;4.55;2.78;;;;;;;18.56;42.03;100962.97;4908707;23;20554;-84
2023/09/16 02:31:46;;;;;;;5.50;3.25;;;;;;;18.55;42.28;100958.50;4902920;29;20778;-83
2023/09/16 02:34:17;;;;;;;4.88;2.88;;;;;;;18.57;42.08;100961.91;4904752;29;20063;-84
2023/09/16 02:36:45;;;;;;;4.68;2.70;;;;;;;18.55;42.10;100969.59;4910232;29;20080;-84
2023/09/16 02:39:13;;;;;;;4.13;2.80;;;;;;;18.53;42.40;100961.44;4911664;29;20414;-83
2023/09/16 02:41:41;;;;;;;4.30;3.00;;;;;;;18.52;42.08;100965.25;4900613;29;20062;-84
2023/09/16 02:44:09;;;;;;;4.05;2.90;;;;;;;18.49;41.93;100958.16;4918949;29;20062;-84
2023/09/16 02:46:37;;;;;;;4.57;2.83;;;;;;;18.48;42.48;100963.84;4898559;29;20071;-84
2023/09/16 02:49:05;;;;;;;3.88;2.67;;;;;;;18.48;42.42;100961.97;4901433;29;20059;-82
2023/09/16 02:51:34;;;;;;;4.15;2.90;;;;;;;18.49;42.42;100955.38;4910487;29;20624;-83
2023/09/16 02:54:02;;;;;;;4.25;2.63;;;;;;;18.46;42.28;100954.88;4898739;29;20059;-82
2023/09/16 02:56:30;;;;;;;5.68;3.05;;;;;;;18.45;42.32;100959.56;4899960;29;20119;-82
2023/09/16 02:58:58;;;;;;;4.80;2.83;;;;;;;18.45;42.30;100958.69;4901265;29;20056;-82
2023/09/16 03:01:27;;;;;;;4.95;2.75;;;;;;;18.43;42.19;100958.88;4903992;29;20048;-83
2023/09/16 03:03:55;;;;;;;4.35;2.80;;;;;;;18.41;42.62;100954.56;4897908;29;20052;-82
2023/09/16 03:06:26;;;;;;;4.60;3.00;;;;;;;18.44;42.15;100962.50;4902541;29;20043;-83
2023/09/16 03:08:55;;;;;;;4.38;2.60;;;;;;;18.42;42.30;100954.38;4900376;29;20052;-83
2023/09/16 03:11:24;;;;;;;5.80;2.75;;;;;;;18.40;42.14;100950.91;4901484;29;20067;-83
2023/09/16 03:13:52;;;;;;;3.97;2.70;;;;;;;18.40;42.64;100956.47;4911855;29;20051;-82
2023/09/16 03:16:23;;;;;;;4.95;2.90;;;;;;;18.40;42.52;100958.34;4900055;29;20115;-83
2023/09/16 03:18:54;;;;;;;;;;;;;;;18.10;43.08;100949.03;4903863;29;20051;-83
2023/09/16 03:21:25;;;;;;;4.50;3.10;;;;;;;18.35;42.25;100944.22;4914966;29;19930;-83
2023/09/16 03:23:59;;;;;;;4.72;2.78;;;;;;;18.34;42.17;100939.72;4896198;29;20048;-83
2023/09/16 03:26:28;;;;;;;4.85;3.30;;;;;;;18.33;42.31;100938.84;4917263;29;20170;-82
2023/09/16 03:28:56;;;;;;;4.97;3.28;;;;;;;18.31;42.54;100938.16;4899633;29;20073;-82
2023/09/16 03:31:28;;;;;;;6.95;2.97;;;;;;;18.27;42.34;100935.94;4916430;29;20055;-82
2023/09/16 03:34:02;;;;;;;4.35;2.75;;;;;;;18.27;42.35;100935.94;4917382;29;20051;-83
2023/09/16 03:36:30;;;;;;;4.28;3.00;;;;;;;18.26;42.53;100939.75;4917251;29;20837;-83
2023/09/16 03:39:01;;;;;;;4.38;2.97;;;;;;;18.28;42.52;100934.91;4902431;29;20960;-82
2023/09/16 03:41:29;;;;;;;5.57;3.40;;;;;;;18.23;42.33;100932.66;4915004;29;20158;-82
2023/09/16 03:44:00;;;;;;;4.95;3.20;;;;;;;18.23;42.71;100929.91;4912716;29;20056;-82
2023/09/16 03:46:29;;;;;;;5.20;3.33;;;;;;;18.23;42.33;100926.25;4914289;29;20047;-82
2023/09/16 03:48:59;;;;;;;4.55;3.08;;;;;;;18.23;42.63;100921.59;4903078;29;20107;-82
2023/09/16 03:51:27;;;;;;;4.20;3.10;;;;;;;18.20;42.41;100921.97;4904130;29;20054;-82
2023/09/16 03:53:56;;;;;;;4.78;3.00;;;;;;;18.20;42.38;100921.97;4914097;29;20056;-83
2023/09/16 03:56:25;;;;;;;4.28;2.75;;;;;;;18.21;42.55;100923.69;4920549;29;20130;-82
2023/09/16 03:58:55;;;;;;;4.90;3.03;;;;;;;18.19;42.46;100927.69;4918733;29;20711;-82
2023/09/16 04:01:26;;;;;;;4.32;3.13;;;;;;;18.17;42.70;100921.47;4906430;29;20050;-83
2023/09/16 04:03:54;;;;;;;4.75;2.83;;;;;;;18.19;42.64;100933.22;4919549;29;20082;-82
2023/09/16 04:06:24;;;;;;;4.80;3.10;;;;;;;18.19;42.58;100925.78;4940420;29;20032;-83
2023/09/16 04:08:52;;;;;;;3.30;2.55;;;;;;;18.19;42.94;100923.00;4924022;29;20059;-82
2023/09/16 04:11:20;;;;;;;3.78;2.72;;;;;;;18.19;42.98;100917.47;4903373;29;20535;-82
2023/09/16 04:13:49;;;;;;;4.88;3.10;;;;;;;18.21;42.72;100914.53;4903486;29;20055;-82
2023/09/16 04:16:19;;;;;;;4.95;2.80;;;;;;;18.19;42.73;100916.59;4900401;29;20079;-82
2023/09/16 04:18:48;;;;;;;4.40;3.08;;;;;;;18.18;42.67;100918.50;4903422;29;20146;-82
2023/09/16 04:21:16;;;;;;;4.60;3.00;;;;;;;18.18;42.94;100910.19;4902250;29;20062;-82
2023/09/16 04:23:44;;;;;;;5.50;3.30;;;;;;;18.17;42.74;100915.91;4919514;29;20170;-82
2023/09/16 04:26:15;;;;;;;3.58;2.58;;;;;;;18.17;42.77;100905.69;4902208;29;20051;-82
2023/09/16 04:28:44;;;;;;;4.17;2.63;;;;;;;18.14;43.08;100918.00;4904782;29;20087;-82
2023/09/16 04:31:14;;;;;;;4.25;2.88;;;;;;;18.18;42.83;100912.97;4900809;29;20607;-82
2023/09/16 04:33:42;;;;;;;4.35;2.90;;;;;;;18.17;43.02;100915.91;4918531;29;20048;-82
2023/09/16 04:36:12;;;;;;;4.22;3.03;;;;;;;18.15;42.67;100914.19;4904977;29;20056;-82
2023/09/16 04:38:41;;;;;;;3.90;2.88;;;;;;;18.15;42.74;100916.09;4916725;29;20068;-82
2023/09/16 04:41:09;;;;;;;3.90;2.80;;;;;;;18.17;43.01;100915.91;4914652;29;20063;-83
2023/09/16 04:43:37;;;;;;;3.92;3.00;;;;;;;18.15;42.75;100916.09;4904494;29;20111;-83
2023/09/16 04:46:07;;;;;;;4.88;2.97;;;;;;;18.15;43.00;100914.19;4907091;29;20055;-82
2023/09/16 04:48:48;;;;;;;3.90;2.75;;;;;;;18.17;43.00;100919.56;4903809;29;20062;-83
2023/09/16 04:51:16;;;;;;;3.88;2.85;;;;;;;18.14;42.88;100915.22;4904098;29;20071;-83
2023/09/16 04:53:44;;;;;;;4.20;2.88;;;;;;;18.15;42.65;100913.31;4905113;29;20793;-83
2023/09/16 04:56:12;;;;;;;4.65;2.85;;;;;;;18.12;42.83;100909.03;4906700;29;20049;-82
2023/09/16 04:58:44;;;;;;;4.85;2.92;;;;;;;18.11;42.61;100910.06;4906283;29;20072;-83
2023/09/16 05:01:13;;;;;;;4.35;2.70;;;;;;;18.13;42.90;100908.00;4907028;29;20146;-83
2023/09/16 05:03:43;;;;;;;4.25;3.08;;;;;;;18.13;42.70;100912.66;4909187;29;20277;-83
2023/09/16 05:06:13;;;;;;;4.70;2.88;;;;;;;18.13;42.69;100915.44;4931828;29;20066;-82
2023/09/16 05:08:41;;;;;;;3.97;2.80;;;;;;;18.10;42.61;100916.66;4922814;29;20060;-82
2023/09/16 05:11:10;;;;;;;3.90;2.83;;;;;;;18.08;42.96;100913.19;4925087;29;20048;-82
2023/09/16 05:13:58;;;;;;;4.18;2.92;;;;;;;18.08;43.08;100912.34;4925971;29;20052;-82
2023/09/16 05:16:26;;;;;;;4.40;3.03;;;;;;;18.09;42.96;100905.75;4913460;29;20052;-82
2023/09/16 05:18:59;;;;;;;4.50;3.10;;;;;;;18.08;42.87;100913.19;4902456;29;20420;-82
2023/09/16 05:21:29;;;;;;;4.30;2.97;;;;;;;18.09;42.90;100906.63;4913729;29;20504;-83
2023/09/16 05:23:56;;;;;;;4.40;3.10;;;;;;;18.08;43.02;100912.34;4910868;29;20162;-82
2023/09/16 05:26:26;;;;;;;4.22;3.05;;;;;;;18.07;43.15;100919.78;4902283;29;20523;-82
2023/09/16 05:28:56;;;;;;;4.65;3.45;;;;;;;18.07;42.88;100913.38;4903864;29;20044;-82
2023/09/16 05:31:27;;;;;;;5.15;3.28;;;;;;;18.05;42.88;100915.50;4905908;29;20134;-83
2023/09/16 05:33:55;;;;;;;3.90;2.80;;;;;;;18.07;43.04;100913.38;4911822;29;20044;-83
2023/09/16 05:36:26;;;;;;;4.60;3.15;;;;;;;18.06;43.12;100909.75;4910786;29;20119;-83
2023/09/16 05:38:57;;;;;;;4.82;2.85;;;;;;;18.08;43.26;100913.19;4907866;29;20150;-83
2023/09/16 05:41:25;;;;;;;4.85;3.20;;;;;;;18.06;43.12;100906.97;4924617;29;20179;-83
2023/09/16 05:43:53;;;;;;;4.47;2.85;;;;;;;18.06;43.33;100912.50;4909227;29;20066;-82
2023/09/16 05:46:23;;;;;;;4.35;2.90;;;;;;;18.07;42.99;100911.47;4909853;29;20059;-83
2023/09/16 05:48:56;;;;;;;4.35;3.05;;;;;;;18.06;43.35;100906.97;4926571;29;20083;-83
2023/09/16 05:51:24;;;;;;;4.78;3.10;;;;;;;18.04;43.01;100903.53;4923455;29;20077;-83
2023/09/16 05:53:52;;;;;;;5.35;3.35;;;;;;;18.08;43.11;100907.66;4937457;29;20063;-82
2023/09/16 05:56:22;;;;;;;4.50;2.92;;;;;;;18.09;43.40;100911.28;4918851;29;20055;-83
2023/09/16 05:58:52;;;;;;;3.90;2.65;;;;;;;18.07;43.16;100911.47;4908517;29;20123;-83
2023/09/16 06:01:21;;;;;;;5.35;2.90;;;;;;;18.08;43.23;100912.34;4906970;29;20052;-83
2023/09/16 06:03:51;;;;;;;5.03;3.20;;;;;;;18.07;43.25;100911.47;4902033;29;20044;-83
2023/09/16 06:06:19;;;;;;;4.88;3.10;;;;;;;18.08;43.26;100913.19;4903202;29;20044;-83
2023/09/16 06:08:48;;;;;;;4.72;3.00;;;;;;;18.08;43.64;100915.09;4921589;29;20054;-83
2023/09/16 06:11:16;;;;;;;5.28;3.30;;;;;;;18.07;43.22;100919.78;4905112;29;20071;-82
2023/09/16 06:13:46;;;;;;;4.68;3.25;;;;;;;18.10;43.11;100913.88;4905987;29;20056;-82
2023/09/16 06:16:14;;;;;;;4.93;3.05;;;;;;;18.10;43.35;100919.44;4903310;29;20063;-82
2023/09/16 06:18:43;;;;;;;4.78;3.10;;;;;;;18.10;43.28;100918.56;4918383;29;20052;-83
2023/09/16 06:21:12;;;;;;;4.68;3.30;;;;;;;18.12;43.83;100925.66;4916853;29;20190;-82
2023/09/16 06:23:40;;;;;;;4.63;3.35;;;;;;;18.12;43.50;100928.44;4904158;29;20141;-82
2023/09/16 06:26:09;;;;;;;4.57;3.15;;;;;;;18.13;43.39;100920.97;4902406;29;20055;-82
2023/09/16 06:28:38;;;;;;;4.80;3.22;;;;;;;18.13;43.54;100929.28;4901352;29;20048;-82
2023/09/16 06:31:08;;;;;;;3.90;2.80;;;;;;;18.15;43.84;100922.50;4918909;29;20190;-83
2023/09/16 06:33:39;;;;;;;4.18;2.97;;;;;;;18.14;43.66;100925.47;4897105;29;20154;-82
2023/09/16 06:36:08;;;;;;;4.80;3.38;;;;;;;18.17;43.63;100924.22;4904648;29;20423;-82
2023/09/16 06:38:36;;;;;;;4.13;3.10;;;;;;;18.19;43.49;100933.22;4905853;29;20039;-83
2023/09/16 06:41:04;;;;;;;4.53;2.90;;;;;;;18.21;43.55;100926.47;4905552;29;20048;-82
2023/09/16 06:43:32;;;;;;;3.97;2.70;;;;;;;18.25;43.55;100926.94;4907927;29;20055;-82
2023/09/16 06:46:00;;;;;;;4.40;2.88;;;;;;;18.29;44.02;100933.88;4918256;29;20447;-84
2023/09/16 06:48:29;;;;;;;4.15;2.97;;;;;;;18.37;44.36;100931.03;4900585;29;20047;-85
2023/09/16 06:50:57;;;;;;;4.22;2.80;;;;;;;18.43;44.59;100930.28;4904237;29;21169;-85
2023/09/16 06:53:25;;;;;;;4.30;2.70;;;;;;;18.52;44.93;100937.53;4905784;29;20543;-85
2023/09/16 06:55:53;;;;;;;4.28;3.03;;;;;;;18.66;45.10;100931.19;4902089;29;20064;-84
2023/09/16 06:58:21;;;;;;;4.68;2.72;;;;;;;18.83;45.48;100937.47;4917060;29;20052;-85
2023/09/16 07:00:50;;;;;;;5.32;3.00;;;;;;;19.00;45.57;100933.50;4904263;29;20145;-83
2023/09/16 07:03:19;;;;;;;4.78;3.00;;;;;;;19.22;45.55;100940.06;4905237;29;20043;-83
2023/09/16 07:05:49;;;;;;;4.65;2.92;;;;;;;19.47;45.41;100933.19;4916943;29;20563;-82
2023/09/16 07:08:19;;;;;;;4.00;2.78;;;;;;;19.72;45.10;100942.09;4902575;29;20504;-83
2023/09/16 07:10:48;;;;;;;4.18;2.67;;;;;;;19.96;44.85;100940.94;4903500;29;20067;-83
2023/09/16 07:13:16;;;;;;;4.78;3.28;;;;;;;20.22;44.47;100937.63;4903485;29;20590;-83
2023/09/16 07:15:43;;;;;;;4.40;2.90;;;;;;;20.46;44.26;100930.84;4902681;29;20487;-83
2023/09/16 07:18:12;;;;;;;4.45;2.88;;;;;;;20.70;43.32;100939.69;4902039;29;20052;-83
2023/09/16 07:20:40;;;;;;;3.47;2.33;;;;;;;20.93;43.41;100945.06;4920833;29;20055;-83
2023/09/16 07:23:09;;;;;;;3.33;2.50;;;;;;;21.18;42.47;100936.28;4903841;29;20454;-83
2023/09/16 07:25:37;;;;;;;3.97;2.30;;;;;;;21.35;42.51;100937.72;4916011;29;20066;-83
2023/09/16 07:28:07;;;;;;;3.55;2.55;;;;;;;21.52;42.26;100937.19;4902100;29;20456;-83
2023/09/16 07:30:36;;;;;;;5.40;2.95;;;;;;;21.70;41.57;100933.00;4904243;29;20127;-83
2023/09/16 07:33:05;;;;;;;3.10;2.35;;;;;;;21.87;41.60;100937.16;4928468;29;20627;-84
2023/09/16 07:35:36;;;;;;;3.88;2.60;;;;;;;22.03;41.00;100936.84;4916637;29;20567;-84
2023/09/16 07:38:04;;;;;;;4.60;2.55;;;;;;;22.16;40.23;100948.06;4932983;29;20066;-84
2023/09/16 07:40:35;;;;;;;4.10;2.67;;;;;;;22.31;39.84;100947.91;4916955;29;20166;-85
2023/09/16 07:43:06;;;;;;;4.00;2.40;;;;;;;22.36;39.01;100945.34;4906620;29;20059;-84
2023/09/16 07:45:34;;;;;;;4.70;2.80;;;;;;;22.42;38.67;100949.22;4902761;29;20126;-84
2023/09/16 07:48:02;;;;;;;3.97;2.85;;;;;;;22.43;37.87;100949.00;4902412;29;20492;-84
2023/09/16 07:50:30;;;;;;;3.50;2.70;;;;;;;22.43;37.91;100945.34;4899814;29;20134;-84
2023/09/16 07:52:59;;;;;;;4.18;2.60;;;;;;;22.43;37.69;100953.72;4913215;29;20059;-83
2023/09/16 07:55:27;;;;;;;3.42;2.17;;;;;;;22.38;37.76;100951.56;4901785;29;20594;-84
2023/09/16 07:57:56;;;;;;;4.15;2.70;;;;;;;22.38;37.75;100951.56;4902756;29;20044;-83
2023/09/16 08:00:24;;;;;;;4.10;2.50;;;;;;;22.35;37.59;100951.13;4901428;29;20075;-85
2023/09/16 08:02:52;;;;;;;4.78;2.60;;;;;;;22.31;37.81;100956.28;4915789;29;20471;-83
2023/09/16 08:05:20;;;;;;;4.38;2.60;;;;;;;22.30;38.02;100959.25;4904290;29;21136;-83
2023/09/16 08:07:49;;;;;;;4.35;2.70;;;;;;;22.28;37.69;100956.69;4902780;29;20417;-84
2023/09/16 08:10:17;;;;;;;4.10;2.60;;;;;;;22.24;37.28;100955.38;4902123;29;20416;-83
2023/09/16 08:12:45;;;;;;;3.78;2.50;;;;;;;22.23;37.49;100962.88;4906862;29;20065;-86
2023/09/16 08:15:15;;;;;;;3.70;2.60;;;;;;;22.22;37.36;100961.16;4913971;29;20051;-87
2023/09/16 08:17:44;;;;;;;3.88;2.63;;;;;;;22.19;37.61;100964.38;4904503;29;20052;-83
2023/09/16 08:20:13;;;;;;;3.92;2.72;;;;;;;22.18;37.26;100967.34;4905878;29;20088;-84
2023/09/16 08:22:41;;;;;;;3.60;2.63;;;;;;;22.14;37.42;100963.28;4913638;29;20051;-84
2023/09/16 08:25:09;;;;;;;4.03;2.72;;;;;;;22.14;37.46;100969.72;4914621;29;20134;-86
2023/09/16 08:27:39;;;;;;;3.45;2.53;;;;;;;22.15;37.53;100973.38;4929955;29;20067;-85
2023/09/16 08:30:08;;;;;;;3.40;2.55;;;;;;;22.14;37.79;100969.72;4904507;29;20051;-83
2023/09/16 08:32:38;;;;;;;3.88;2.80;;;;;;;22.14;37.52;100969.72;4902604;29;20484;-82
2023/09/16 08:35:07;;;;;;;3.80;2.78;;;;;;;22.15;37.66;100967.78;4903652;29;20176;-83
2023/09/16 08:37:36;;;;;;;3.90;2.60;;;;;;;22.14;37.61;100972.50;4905503;29;20040;-83
2023/09/16 08:40:05;;;;;;;3.45;2.58;;;;;;;22.18;37.45;100970.13;4902197;29;20056;-82
2023/09/16 08:42:37;;;;;;;4.13;2.80;;;;;;;22.23;36.91;100978.75;4903213;29;20088;-81
2023/09/16 08:45:09;;;;;;;4.13;2.67;;;;;;;22.24;37.45;100977.69;4916078;29;20052;-82
2023/09/16 08:47:43;;;;;;;4.30;2.78;;;;;;;22.26;36.83;100981.16;4907323;29;20119;-82
2023/09/16 08:50:12;;;;;;;5.00;2.60;;;;;;;22.28;37.41;100968.69;4906137;29;20071;-82
2023/09/16 08:52:47;;;;;;;4.32;2.83;;;;;;;22.32;36.81;100958.00;4903209;29;20060;-81
2023/09/16 08:55:17;;;;;;;3.80;2.90;;;;;;;22.32;37.33;100969.16;4905234;29;20048;-82
2023/09/16 08:57:52;;;;;;;4.78;2.90;;;;;;;22.38;37.11;100959.06;4907925;29;20047;-82
2023/09/16 09:00:20;;;;;;;3.65;2.55;;;;;;;22.36;37.35;100958.41;4919829;29;20534;-81
2023/09/16 09:02:51;;;;;;;4.68;2.80;;;;;;;22.42;37.28;100955.66;4923780;29;20136;-81
2023/09/16 09:05:21;;;;;;;3.88;2.92;;;;;;;22.44;37.31;100956.28;4907369;29;20048;-81
2023/09/16 09:07:49;;;;;;;3.50;2.80;;;;;;;22.47;37.31;100963.41;4908272;29;20063;-82
2023/09/16 09:10:17;;;;;;;6.03;2.75;;;;;;;22.50;37.18;100961.06;4918529;29;20067;-81
2023/09/16 09:12:45;;;;;;;4.30;2.90;;;;;;;22.57;37.33;100955.53;4923625;29;20143;-82
2023/09/16 09:15:14;;;;;;;3.70;2.67;;;;;;;22.61;37.56;100963.25;4907747;29;20048;-83
2023/09/16 09:17:45;;;;;;;3.22;2.45;;;;;;;22.69;37.53;100970.56;4909484;29;20055;-82
2023/09/16 09:20:18;;;;;;;4.72;3.10;;;;;;;22.76;37.39;100973.34;4928167;29;20174;-82
2023/09/16 09:22:50;;;;;;;3.80;2.58;;;;;;;22.81;37.24;100970.81;4936506;29;20072;-80
2023/09/16 09:25:21;;;;;;;3.60;2.67;;;;;;;22.88;37.51;100974.47;4932469;29;20067;-82
2023/09/16 09:27:50;;;;;;;3.70;3.00;;;;;;;22.92;37.39;100973.81;4938367;29;20051;-81
2023/09/16 09:30:24;;;;;;;3.90;2.67;;;;;;;23.01;37.46;100978.09;4918977;29;20047;-80
2023/09/16 09:32:52;;;;;;;3.90;2.90;;;;;;;23.08;37.09;100985.66;4907405;29;20059;-80
2023/09/16 09:35:23;;;;;;;4.13;2.63;;;;;;;23.18;36.98;100983.31;4917305;29;20428;-81
2023/09/16 09:37:51;;;;;;;4.10;2.60;;;;;;;23.21;37.33;100972.56;4908218;29;20063;-80
2023/09/16 09:40:21;;;;;;;3.15;2.28;;;;;;;23.30;36.93;100985.25;4907014;29;20067;-81
2023/09/16 09:42:51;;;;;;;4.18;3.00;;;;;;;23.38;36.67;100986.97;4906513;29;20519;-83
2023/09/16 09:45:20;;;;;;;3.58;2.72;;;;;;;23.44;36.61;100980.50;4915212;29;20047;-82
2023/09/16 09:47:50;;;;;;;4.35;2.67;;;;;;;23.52;36.50;100985.00;4923489;29;20051;-82
2023/09/16 09:50:20;;;;;;;4.25;2.70;;;;;;;23.55;36.38;100988.25;4916331;29;20135;-83
2023/09/16 09:52:51;;;;;;;4.22;2.70;;;;;;;23.63;36.14;100989.94;4905776;29;20055;-82
2023/09/16 09:55:21;;;;;;;4.67;2.90;;;;;;;23.65;36.28;100987.81;4903587;29;20836;-83
2023/09/16 09:57:51;;;;;;;4.20;3.20;;;;;;;23.71;35.69;100986.94;4904526;29;20059;-82
2023/09/16 10:00:22;;;;;;;4.22;2.90;;;;;;;23.75;35.96;100989.06;4921823;29;20099;-82
2023/09/16 10:02:51;;;;;;;4.97;2.95;;;;;;;23.81;36.05;100989.31;4903192;29;20059;-82
2023/09/16 10:05:20;;;;;;;4.40;3.30;;;;;;;23.85;35.89;100991.44;4902851;29;20120;-82
2023/09/16 10:07:51;;;;;;;5.88;3.22;;;;;;;23.91;35.39;100987.75;4904110;29;20047;-82
2023/09/16 10:10:21;;;;;;;4.00;2.80;;;;;;;23.93;35.23;100988.41;4916667;29;20131;-82
2023/09/16 10:12:51;;;;;;;4.25;3.10;;;;;;;23.96;35.10;100989.91;4916752;29;20060;-82
2023/09/16 10:15:24;;;;;;;4.15;3.20;;;;;;;24.00;35.06;100983.66;4918634;29;20223;-82
2023/09/16 10:17:52;;;;;;;;;;;;;;;23.68;35.92;100998.53;4905185;29;20579;-83
2023/09/16 10:20:22;;;;;;;4.03;2.50;;;;;;;23.99;35.78;100986.69;4919732;29;19933;-83
2023/09/16 10:22:53;;;;;;;4.22;3.10;;;;;;;24.04;35.50;100984.94;4905766;29;20069;-82
2023/09/16 10:25:23;;;;;;;4.40;2.80;;;;;;;24.10;35.37;100988.78;4907732;29;20055;-81
2023/09/16 10:27:56;;;;;;;3.97;2.90;;;;;;;24.14;35.23;100996.53;4908773;29;20067;-81
2023/09/16 10:30:25;;;;;;;3.88;2.83;;;;;;;24.17;35.68;100988.75;4931330;29;20091;-82
2023/09/16 10:32:54;;;;;;;4.18;3.08;;;;;;;24.24;35.38;100990.44;4914067;29;20052;-83
2023/09/16 10:35:22;;;;;;;3.75;2.63;;;;;;;24.28;35.39;100980.53;4919704;29;20417;-82
2023/09/16 10:37:54;;;;;;;4.68;3.10;;;;;;;24.36;35.47;100987.84;4910978;29;20044;-83
2023/09/16 10:40:24;;;;;;;5.65;3.40;;;;;;;24.38;35.33;100980.09;4911607;29;20066;-83
2023/09/16 10:42:57;;;;;;;4.32;3.00;;;;;;;24.47;35.17;100975.97;4925373;29;20059;-83
2023/09/16 10:45:26;;;;;;;4.40;3.50;;;;;;;24.51;35.42;100971.63;4907730;29;20059;-83
2023/09/16 10:47:55;;;;;;;5.63;3.70;;;;;;;24.56;35.02;100974.63;4918123;29;20088;-82
2023/09/16 10:50:25;;;;;;;4.32;3.50;;;;;;;24.62;34.98;100968.13;4904946;29;20048;-81
2023/09/16 10:53:00;;;;;;;4.25;3.25;;;;;;;24.66;34.54;100966.59;4906703;29;20071;-82
2023/09/16 10:55:35;;;;;;;4.63;3.20;;;;;;;24.70;34.66;100962.25;4898293;29;20057;-82
2023/09/16 10:58:07;;;;;;;4.57;3.17;;;;;;;24.74;34.88;100960.72;4903415;29;20039;-82
2023/09/16 11:00:39;;;;;;;5.32;3.60;;;;;;;24.78;34.69;100956.41;4904091;29;20059;-82
2023/09/16 11:03:13;;;;;;;5.18;3.40;;;;;;;24.85;34.59;100957.19;4902155;29;20063;-82
2023/09/16 11:05:42;;;;;;;4.80;3.30;;;;;;;24.88;34.88;100962.34;4908615;29;20323;-83
2023/09/16 11:08:11;;;;;;;3.95;3.17;;;;;;;24.94;34.46;100963.41;4917589;29;20048;-84
2023/09/16 11:10:40;;;;;;;3.80;3.10;;;;;;;24.97;34.42;100959.31;4921308;29;20060;-82
2023/09/16 11:13:09;;;;;;;4.05;2.95;;;;;;;25.01;34.35;100964.22;4924536;29;20096;-82
2023/09/16 11:15:37;;;;;;;5.30;3.20;;;;;;;25.02;34.43;100965.94;4921102;29;20057;-83
2023/09/16 11:18:08;;;;;;;4.63;3.65;;;;;;;25.07;34.29;100971.69;4916672;29;20048;-82
2023/09/16 11:20:38;;;;;;;4.43;3.40;;;;;;;25.08;34.49;100965.03;4919715;29;20115;-82
2023/09/16 11:23:07;;;;;;;3.92;3.17;;;;;;;25.12;34.15;100974.69;4915720;29;20580;-84
2023/09/16 11:25:38;;;;;;;4.93;3.40;;;;;;;25.16;33.82;100961.06;4901897;29;20055;-83
2023/09/16 11:28:08;;;;;;;4.10;3.00;;;;;;;25.18;34.33;100950.50;4901762;29;20460;-83
2023/09/16 11:30:37;;;;;;;4.25;3.17;;;;;;;25.19;34.09;100941.88;4898506;29;20107;-84
2023/09/16 11:33:24;;;;;;;4.28;3.35;;;;;;;25.26;33.94;100947.41;4901107;29;20044;-83
2023/09/16 11:36:07;;;;;;;4.38;3.08;;;;;;;25.29;34.38;100946.97;4899428;29;20820;-83